Time;durP1;ratioP1;P1;durP2;ratioP2;P2;SDS_P1;SDS_P2;PMS_P1;PMS_P2;Temp;Humidity;BMP_temperature;BMP_pressure;BME280_temperature;BME280_humidity;BME280_pressure;Samples;Min_cycle;Max_cycle;Signal;HPM_P1;HPM_P2
2022/01/03 00:00:51;;;;;;;2.33;1.97;;;12.60;73.50;;;;;;4947728;28;20435;-75
2022/01/03 00:03:21;;;;;;;4.43;1.90;;;12.60;73.30;;;;;;4949405;28;20470;-75
2022/01/03 00:05:47;;;;;;;4.90;1.90;;;12.70;72.90;;;;;;4956074;28;20513;-74
2022/01/03 00:08:13;;;;;;;3.97;1.90;;;12.70;72.90;;;;;;4951062;28;20506;-74
2022/01/03 00:10:40;;;;;;;4.13;2.17;;;12.60;72.70;;;;;;4951842;28;20323;-75
2022/01/03 00:13:06;;;;;;;2.73;1.80;;;12.60;72.70;;;;;;4953495;28;20924;-74
2022/01/03 00:15:32;;;;;;;3.37;1.83;;;12.70;71.80;;;;;;4948966;28;20444;-74
2022/01/03 00:17:58;;;;;;;7.40;1.97;;;12.80;71.30;;;;;;4951524;28;20763;-75
2022/01/03 00:20:26;;;;;;;6.00;2.03;;;12.90;70.80;;;;;;4950473;28;20440;-73
2022/01/03 00:23:03;;;;;;;4.00;2.07;;;12.90;70.50;;;;;;4951091;28;20570;-73
2022/01/03 00:25:29;;;;;;;3.10;1.63;;;12.90;70.40;;;;;;4951932;28;20434;-73
2022/01/03 00:28:05;;;;;;;5.03;2.13;;;12.90;70.10;;;;;;4953127;28;20459;-74
2022/01/03 00:30:36;;;;;;;9.50;2.40;;;13.00;69.80;;;;;;4956716;28;20431;-74
2022/01/03 00:33:02;;;;;;;3.10;2.10;;;13.00;69.80;;;;;;4960413;28;20450;-72
2022/01/03 00:35:29;;;;;;;5.23;1.87;;;13.00;69.50;;;;;;4957148;28;20431;-74
2022/01/03 00:37:57;;;;;;;4.93;2.30;;;13.00;69.50;;;;;;4952206;28;20435;-73
2022/01/03 00:40:24;;;;;;;6.13;2.10;;;13.00;69.50;;;;;;4955813;28;20435;-72
2022/01/03 00:42:50;;;;;;;2.27;1.80;;;13.00;69.50;;;;;;4959320;28;20522;-73
2022/01/03 00:45:16;;;;;;;4.73;1.90;;;13.00;69.50;;;;;;4953204;29;20488;-72
2022/01/03 00:47:42;;;;;;;6.23;1.90;;;13.00;69.40;;;;;;4954979;28;20431;-74
2022/01/03 00:50:15;;;;;;;5.60;2.07;;;13.00;69.20;;;;;;4955020;28;20652;-74
2022/01/03 00:52:41;;;;;;;2.60;1.87;;;13.00;69.20;;;;;;4959635;28;20217;-73
2022/01/03 00:55:08;;;;;;;6.00;1.90;;;13.00;69.10;;;;;;4955705;29;20457;-72
2022/01/03 00:58:01;;;;;;;2.67;1.80;;;13.00;68.60;;;;;;4966669;28;20433;-74
2022/01/03 01:00:30;;;;;;;6.10;2.63;;;13.00;68.60;;;;;;4958058;28;20428;-72
2022/01/03 01:03:12;;;;;;;3.97;1.80;;;13.00;68.60;;;;;;4960529;28;20481;-74
2022/01/03 01:05:44;;;;;;;6.43;2.13;;;13.00;68.90;;;;;;4954217;28;20431;-73
2022/01/03 01:08:10;;;;;;;3.00;1.83;;;13.00;69.10;;;;;;4953899;28;20475;-72
2022/01/03 01:10:39;;;;;;;6.30;1.77;;;13.00;69.10;;;;;;4953062;28;21081;-72
2022/01/03 01:13:08;;;;;;;3.97;1.73;;;12.90;69.40;;;;;;4953851;28;20463;-73
2022/01/03 01:15:35;;;;;;;2.93;1.77;;;12.90;69.40;;;;;;4951570;28;20427;-73
2022/01/03 01:18:04;;;;;;;9.00;2.20;;;12.90;69.50;;;;;;4954962;28;20426;-73
2022/01/03 01:20:31;;;;;;;4.63;2.07;;;12.90;69.20;;;;;;4954799;28;20432;-72
2022/01/03 01:22:57;;;;;;;3.53;1.70;;;12.90;69.20;;;;;;4952901;28;20467;-73
2022/01/03 01:28:15;;;;;;;2.77;2.00;;;12.90;69.40;;;;;;4964757;28;20457;-74
2022/01/03 01:30:43;;;;;;;3.13;1.90;;;12.80;69.70;;;;;;4967733;28;20438;-73
2022/01/03 01:33:14;;;;;;;2.33;1.50;;;12.80;69.70;;;;;;4965057;28;21273;-74
2022/01/03 01:35:55;;;;;;;4.13;1.90;;;12.80;69.70;;;;;;4968839;28;20431;-74
2022/01/03 01:38:24;;;;;;;6.10;2.27;;;12.80;69.80;;;;;;4964490;28;20945;-73
2022/01/03 01:40:57;;;;;;;4.13;2.20;;;12.80;69.80;;;;;;4958912;28;20424;-73
2022/01/03 01:43:40;;;;;;;3.20;1.70;;;12.80;69.90;;;;;;4957477;28;20475;-73
2022/01/03 01:46:25;;;;;;;5.20;2.20;;;12.80;70.10;;;;;;4958449;28;20430;-73
2022/01/03 01:48:51;;;;;;;6.53;2.30;;;12.80;70.40;;;;;;4953934;28;20419;-74
2022/01/03 01:51:21;;;;;;;4.70;1.80;;;12.80;70.50;;;;;;4954499;28;20427;-75
2022/01/03 01:53:54;;;;;;;3.70;2.00;;;12.80;70.50;;;;;;4959342;28;20447;-74
2022/01/03 01:56:23;;;;;;;6.80;2.10;;;12.80;70.50;;;;;;4955208;28;20959;-73
2022/01/03 01:58:59;;;;;;;4.37;1.80;;;12.70;70.70;;;;;;4953592;28;20447;-74
2022/01/03 02:01:55;;;;;;;5.57;1.90;;;12.70;70.80;;;;;;4956669;28;20447;-73
2022/01/03 02:04:32;;;;;;;3.10;1.73;;;12.70;71.10;;;;;;4948963;29;20479;-73
2022/01/03 02:07:25;;;;;;;3.13;1.67;;;12.70;71.10;;;;;;4957067;28;20877;-73
2022/01/03 02:10:11;;;;;;;12.93;2.40;;;12.70;71.30;;;;;;4953934;28;20432;-74
2022/01/03 02:12:49;;;;;;;2.70;1.90;;;12.70;71.40;;;;;;4952178;29;20821;-74
2022/01/03 02:15:17;;;;;;;6.17;1.57;;;12.70;71.60;;;;;;4958571;28;20435;-75
2022/01/03 02:17:47;;;;;;;6.57;2.10;;;12.60;71.70;;;;;;4958922;28;20438;-73
2022/01/03 02:20:14;;;;;;;5.60;2.03;;;12.60;72.10;;;;;;4969320;28;20473;-75
2022/01/03 02:22:42;;;;;;;4.00;2.27;;;12.60;72.40;;;;;;4964156;28;20479;-75
2022/01/03 02:25:10;;;;;;;3.53;1.60;;;12.60;72.70;;;;;;4963918;28;20450;-75
2022/01/03 02:27:37;;;;;;;7.10;2.60;;;12.50;73.20;;;;;;4958123;28;20486;-74
2022/01/03 02:30:09;;;;;;;4.30;1.73;;;12.50;73.30;;;;;;4947871;28;20442;-75
2022/01/03 02:32:35;;;;;;;2.13;1.70;;;12.50;73.50;;;;;;4952892;29;20455;-75
2022/01/03 02:35:02;;;;;;;7.23;2.20;;;12.50;73.60;;;;;;4952230;28;20427;-74
2022/01/03 02:37:27;;;;;;;3.00;1.70;;;12.50;73.60;;;;;;4958609;28;20184;-73
2022/01/03 02:39:55;;;;;;;2.70;1.80;;;12.50;73.60;;;;;;4953765;28;21059;-73
2022/01/03 02:42:24;;;;;;;4.10;1.97;;;12.50;73.50;;;;;;4960912;28;20634;-74
2022/01/03 02:45:06;;;;;;;2.33;1.70;;;12.50;73.50;;;;;;4956465;28;20433;-74
2022/01/03 02:47:32;;;;;;;4.33;2.30;;;12.50;73.50;;;;;;4952516;28;20428;-72
2022/01/03 02:49:58;;;;;;;4.20;1.67;;;12.40;73.50;;;;;;4951572;28;20994;-72
2022/01/03 02:52:24;;;;;;;4.83;2.20;;;12.50;73.50;;;;;;4956518;28;20426;-74
2022/01/03 02:54:51;;;;;;;12.60;2.30;;;12.40;73.60;;;;;;4951297;28;20219;-74
2022/01/03 02:57:23;;;;;;;6.90;1.90;;;12.40;73.60;;;;;;4956446;28;20429;-74
2022/01/03 02:59:56;;;;;;;5.17;1.90;;;12.40;73.70;;;;;;4954165;28;20447;-74
2022/01/03 03:02:23;;;;;;;4.03;1.90;;;12.40;73.90;;;;;;4962497;28;20427;-73
2022/01/03 03:04:57;;;;;;;5.97;1.70;;;12.40;73.90;;;;;;4954671;28;20432;-74
2022/01/03 03:07:26;;;;;;;8.23;1.93;;;12.40;73.70;;;;;;4955263;28;20430;-73
2022/01/03 03:09:52;;;;;;;4.03;1.97;;;12.30;73.90;;;;;;4957563;28;20506;-74
2022/01/03 03:12:18;;;;;;;5.33;1.87;;;12.30;74.00;;;;;;4963884;28;20437;-73
2022/01/03 03:14:44;;;;;;;3.77;1.53;;;12.30;74.20;;;;;;4955729;28;20985;-74
2022/01/03 03:17:10;;;;;;;3.70;1.67;;;12.30;74.00;;;;;;4962148;28;20420;-74
2022/01/03 03:19:58;;;;;;;5.03;2.20;;;12.20;74.20;;;;;;4965296;28;20554;-74
2022/01/03 03:22:28;;;;;;;5.60;1.90;;;12.20;74.30;;;;;;4967131;28;20183;-74
2022/01/03 03:25:15;;;;;;;3.00;1.90;;;12.20;74.60;;;;;;4949226;28;20478;-74
2022/01/03 03:27:44;;;;;;;3.30;1.67;;;12.10;74.60;;;;;;4959407;28;20497;-74
2022/01/03 03:30:12;;;;;;;2.80;1.80;;;12.10;74.60;;;;;;4964658;28;20431;-74
2022/01/03 03:32:38;;;;;;;4.70;1.90;;;12.10;74.80;;;;;;4955275;28;20447;-74
2022/01/03 03:35:05;;;;;;;5.50;1.80;;;12.10;74.00;;;;;;4961272;28;20493;-73
2022/01/03 03:37:31;;;;;;;4.93;1.77;;;12.10;74.60;;;;;;4958083;28;20427;-75
2022/01/03 03:39:56;;;;;;;6.73;1.90;;;12.10;74.00;;;;;;4966819;28;20517;-74
2022/01/03 03:42:22;;;;;;;2.80;1.50;;;12.00;74.00;;;;;;4964375;28;20187;-74
2022/01/03 03:44:48;;;;;;;4.10;1.73;;;12.00;74.30;;;;;;4960608;28;20277;-74
2022/01/03 03:47:14;;;;;;;6.27;2.73;;;12.00;74.00;;;;;;4966668;28;20626;-73
2022/01/03 03:49:40;;;;;;;3.87;2.10;;;12.00;73.70;;;;;;4962101;28;21641;-73
2022/01/03 03:52:06;;;;;;;5.43;1.97;;;12.00;73.90;;;;;;4963302;28;20899;-73
2022/01/03 03:54:33;;;;;;;4.73;1.80;;;12.00;73.70;;;;;;4960671;28;20477;-73
2022/01/03 03:57:00;;;;;;;9.33;2.10;;;12.00;73.50;;;;;;4959959;28;20416;-73
2022/01/03 03:59:26;;;;;;;4.00;2.03;;;12.00;73.30;;;;;;4963644;28;20498;-73
2022/01/03 04:01:53;;;;;;;8.00;1.93;;;11.90;73.30;;;;;;4959875;28;20427;-74
2022/01/03 04:04:19;;;;;;;2.93;1.70;;;12.00;72.60;;;;;;4960175;28;20475;-73
2022/01/03 04:06:45;;;;;;;3.80;2.00;;;12.00;72.60;;;;;;4959656;28;20430;-73
2022/01/03 04:09:11;;;;;;;5.83;1.63;;;11.90;72.40;;;;;;4966455;28;20434;-74
2022/01/03 04:11:36;;;;;;;4.10;1.80;;;11.90;72.10;;;;;;4961399;28;20493;-74
2022/01/03 04:14:03;;;;;;;3.60;1.60;;;12.00;72.10;;;;;;4958486;28;20290;-73
2022/01/03 04:16:28;;;;;;;3.70;1.67;;;11.90;72.10;;;;;;4955658;28;20196;-73
2022/01/03 04:18:54;;;;;;;4.60;1.70;;;11.90;72.30;;;;;;4958849;28;20430;-74
2022/01/03 04:21:20;;;;;;;3.50;1.70;;;11.90;72.30;;;;;;4964455;28;20192;-74
2022/01/03 04:23:46;;;;;;;3.77;1.60;;;11.90;72.10;;;;;;4962624;28;20253;-73
2022/01/03 04:26:12;;;;;;;4.00;1.70;;;11.90;72.30;;;;;;4961606;28;20548;-73
2022/01/03 04:28:39;;;;;;;5.00;2.13;;;11.90;72.10;;;;;;4960709;28;20187;-73
2022/01/03 04:31:05;;;;;;;7.43;2.20;;;11.80;72.10;;;;;;4969417;28;20184;-74
2022/01/03 04:33:51;;;;;;;6.13;1.87;;;11.80;72.30;;;;;;4964728;28;20486;-74
2022/01/03 04:36:17;;;;;;;3.17;1.80;;;11.80;72.40;;;;;;4906824;29;20425;-75
2022/01/03 04:38:43;;;;;;;2.13;1.40;;;11.80;72.10;;;;;;4908342;29;20555;-74
2022/01/03 04:41:10;;;;;;;9.90;2.40;;;11.90;72.10;;;;;;4914806;29;20209;-73
2022/01/03 04:43:36;;;;;;;2.90;1.70;;;11.90;72.30;;;;;;4907555;29;20653;-73
2022/01/03 04:46:02;;;;;;;5.33;1.63;;;11.90;72.90;;;;;;4915425;29;20480;-73
2022/01/03 04:48:28;;;;;;;2.77;1.57;;;11.90;73.50;;;;;;4916415;29;20432;-73
2022/01/03 04:50:53;;;;;;;5.53;1.77;;;11.90;73.70;;;;;;4915468;29;20813;-73
2022/01/03 04:53:25;;;;;;;4.00;1.40;;;12.00;74.00;;;;;;4913897;29;20220;-73
2022/01/03 04:55:51;;;;;;;3.90;1.77;;;11.90;74.60;;;;;;4897463;29;20445;-74
2022/01/03 04:58:17;;;;;;;3.13;1.50;;;12.00;74.80;;;;;;4912871;29;20802;-73
2022/01/03 05:00:43;;;;;;;7.60;2.10;;;11.90;75.50;;;;;;4900974;29;20429;-74
2022/01/03 05:03:09;;;;;;;5.33;1.90;;;12.00;76.20;;;;;;4904901;29;20731;-73
2022/01/03 05:05:34;;;;;;;8.60;1.90;;;12.00;77.60;;;;;;4906593;29;20194;-73
2022/01/03 05:08:00;;;;;;;5.67;1.80;;;12.00;78.40;;;;;;4909318;29;20917;-73
2022/01/03 05:10:26;;;;;;;6.80;2.00;;;12.00;78.10;;;;;;4904587;29;20270;-74
2022/01/03 05:12:52;;;;;;;4.37;2.10;;;12.00;78.70;;;;;;4919369;29;20539;-73
2022/01/03 05:15:17;;;;;;;3.83;2.00;;;11.80;80.50;;;;;;4952709;29;20188;-73
2022/01/03 05:17:43;;;;;;;3.20;1.57;;;11.50;83.40;;;;;;4958176;28;20183;-73
2022/01/03 05:20:09;;;;;;;9.80;1.80;;;11.40;84.90;;;;;;4954237;28;20188;-72
2022/01/03 05:22:35;;;;;;;4.60;1.83;;;11.30;85.50;;;;;;4951043;28;20312;-74
2022/01/03 05:25:01;;;;;;;8.33;2.13;;;11.20;85.90;;;;;;4953996;28;20416;-73
2022/01/03 05:27:26;;;;;;;10.63;2.63;;;11.20;86.20;;;;;;4953749;28;20199;-73
2022/01/03 05:29:52;;;;;;;5.40;2.30;;;11.10;86.80;;;;;;4955845;28;20423;-75
2022/01/03 05:32:18;;;;;;;6.07;2.07;;;11.10;87.00;;;;;;4957406;28;20199;-74
2022/01/03 05:34:43;;;;;;;8.47;2.10;;;11.10;87.40;;;;;;4953915;28;20195;-74
2022/01/03 05:37:09;;;;;;;3.87;2.10;;;11.00;87.80;;;;;;4959593;28;20441;-73
2022/01/03 05:39:36;;;;;;;5.33;1.90;;;11.00;88.40;;;;;;4954296;28;20277;-73
2022/01/03 05:42:02;;;;;;;8.40;2.20;;;11.00;88.70;;;;;;4967101;28;20183;-74
2022/01/03 05:44:28;;;;;;;6.33;2.10;;;11.00;89.20;;;;;;4963155;28;20471;-73
2022/01/03 05:46:54;;;;;;;11.10;2.80;;;11.00;89.50;;;;;;4957073;28;20427;-74
2022/01/03 05:49:19;;;;;;;9.63;2.17;;;11.00;90.20;;;;;;4960606;28;20239;-74
2022/01/03 05:51:45;;;;;;;4.40;2.40;;;11.00;90.20;;;;;;4965247;28;20191;-74
2022/01/03 05:54:11;;;;;;;12.90;2.33;;;11.00;90.20;;;;;;4962404;28;20215;-74
2022/01/03 05:56:36;;;;;;;6.63;2.30;;;10.90;90.40;;;;;;4963749;28;20299;-73
2022/01/03 05:59:07;;;;;;;13.03;3.00;;;10.80;90.60;;;;;;4962077;28;20184;-75
2022/01/03 06:01:36;;;;;;;10.43;2.40;;;10.70;90.90;;;;;;4961751;28;20191;-74
2022/01/03 06:04:14;;;;;;;8.20;2.23;;;10.70;91.00;;;;;;4962212;28;20471;-75
2022/01/03 06:06:55;;;;;;;10.67;2.70;;;10.70;91.10;;;;;;4960556;28;20545;-74
2022/01/03 06:09:22;;;;;;;6.83;3.03;;;10.60;91.50;;;;;;4957575;28;20817;-74
2022/01/03 06:11:48;;;;;;;9.63;2.63;;;10.70;91.60;;;;;;4960141;28;20927;-74
2022/01/03 06:14:19;;;;;;;3.90;1.90;;;10.70;91.70;;;;;;4955123;28;20486;-73
2022/01/03 06:16:46;;;;;;;5.23;2.20;;;10.70;91.70;;;;;;4952569;28;20462;-73
2022/01/03 06:19:13;;;;;;;13.50;2.10;;;10.70;91.70;;;;;;4953697;28;20478;-73
2022/01/03 06:21:40;;;;;;;15.07;2.47;;;10.70;91.70;;;;;;4951933;28;20435;-73
2022/01/03 06:24:11;;;;;;;4.20;2.20;;;10.70;91.60;;;;;;4952603;28;21013;-73
2022/01/03 06:26:40;;;;;;;15.57;2.10;;;10.70;91.70;;;;;;4952372;28;20981;-75
2022/01/03 06:29:06;;;;;;;4.10;2.40;;;10.60;91.90;;;;;;4947173;28;20554;-74
2022/01/03 06:31:32;;;;;;;9.33;2.53;;;10.60;92.00;;;;;;4952712;28;20518;-74
2022/01/03 06:33:59;;;;;;;7.00;2.03;;;10.60;92.10;;;;;;4952349;28;20634;-75
2022/01/03 06:36:26;;;;;;;7.70;2.53;;;10.70;92.00;;;;;;4950916;28;20549;-74
2022/01/03 06:38:51;;;;;;;4.63;2.10;;;10.60;92.10;;;;;;4952779;28;20499;-73
2022/01/03 06:41:17;;;;;;;6.37;2.23;;;10.60;92.10;;;;;;4952531;28;21085;-75
2022/01/03 06:43:43;;;;;;;2.67;1.93;;;10.60;92.20;;;;;;4952450;28;20726;-73
2022/01/03 06:46:09;;;;;;;7.77;3.00;;;10.60;92.30;;;;;;4952531;28;20192;-73
2022/01/03 06:48:35;;;;;;;8.57;4.10;;;10.50;92.30;;;;;;4959695;28;20423;-73
2022/01/03 06:51:01;;;;;;;9.30;3.57;;;10.60;92.50;;;;;;4952742;28;20172;-74
2022/01/03 06:53:26;;;;;;;11.90;3.87;;;10.60;92.50;;;;;;4952330;28;20692;-74
2022/01/03 06:55:52;;;;;;;6.00;3.80;;;10.60;92.40;;;;;;4951975;28;20295;-74
2022/01/03 06:58:18;;;;;;;12.40;6.60;;;10.60;92.50;;;;;;4953522;28;20195;-73
2022/01/03 07:00:44;;;;;;;9.97;4.27;;;10.50;92.60;;;;;;4953692;28;20431;-75
2022/01/03 07:03:10;;;;;;;6.40;2.50;;;10.40;92.80;;;;;;4961499;28;20215;-74
2022/01/03 07:05:35;;;;;;;6.47;2.57;;;10.30;93.10;;;;;;4952665;28;20626;-73
2022/01/03 07:08:01;;;;;;;13.70;5.17;;;10.20;93.20;;;;;;4957791;28;20184;-74
2022/01/03 07:10:27;;;;;;;8.87;4.40;;;10.20;93.40;;;;;;4962221;28;20677;-74
2022/01/03 07:12:54;;;;;;;19.83;5.70;;;10.10;93.60;;;;;;4950329;28;20602;-75
2022/01/03 07:20:52;;;;;;;11.50;3.60;;;10.00;94.60;;;;;;4955615;28;20446;-75
2022/01/03 07:23:19;;;;;;;10.93;3.90;;;10.10;95.00;;;;;;4956289;29;20493;-75
2022/01/03 07:25:46;;;;;;;8.27;3.63;;;10.00;95.00;;;;;;4957675;28;20428;-75
2022/01/03 07:28:13;;;;;;;9.00;4.10;;;10.00;95.20;;;;;;4965181;28;20427;-75
2022/01/03 07:30:39;;;;;;;12.60;3.40;;;10.00;95.30;;;;;;4958133;28;20506;-76
2022/01/03 07:33:05;;;;;;;8.33;3.47;;;10.00;95.40;;;;;;4955141;29;20986;-76
2022/01/03 07:35:34;;;;;;;14.17;3.27;;;9.90;95.50;;;;;;4953212;29;20424;-76
2022/01/03 07:38:01;;;;;;;11.13;3.90;;;9.90;95.50;;;;;;4953857;28;20563;-75
2022/01/03 07:40:27;;;;;;;7.27;3.10;;;9.90;95.40;;;;;;4957210;28;20502;-74
2022/01/03 07:42:52;;;;;;;11.03;4.13;;;9.90;95.30;;;;;;4955078;28;20539;-74
2022/01/03 07:45:19;;;;;;;8.20;2.73;;;9.90;94.90;;;;;;4958409;28;20428;-74
2022/01/03 07:47:45;;;;;;;10.90;3.10;;;9.80;94.50;;;;;;4952091;28;20187;-74
2022/01/03 07:50:12;;;;;;;8.80;2.83;;;9.80;94.20;;;;;;4957420;28;20459;-73
2022/01/03 07:52:38;;;;;;;9.73;3.10;;;9.80;94.10;;;;;;4957214;28;20458;-73
2022/01/03 07:55:06;;;;;;;9.77;3.07;;;9.80;93.90;;;;;;4970762;28;20435;-74
2022/01/03 07:57:32;;;;;;;7.87;2.50;;;9.80;93.90;;;;;;4962986;28;20423;-73
2022/01/03 07:59:58;;;;;;;12.17;2.90;;;9.70;94.10;;;;;;4960782;28;20766;-75
2022/01/03 08:02:24;;;;;;;6.10;3.13;;;9.80;94.40;;;;;;4963909;28;20961;-75
2022/01/03 08:04:50;;;;;;;6.70;2.70;;;9.80;94.70;;;;;;4959868;28;20475;-72
2022/01/03 08:07:16;;;;;;;7.43;3.23;;;9.80;94.90;;;;;;4969208;28;20448;-73
2022/01/03 08:09:42;;;;;;;9.43;3.77;;;9.80;95.00;;;;;;4971164;28;20461;-75
2022/01/03 08:12:09;;;;;;;6.80;2.20;;;9.90;95.00;;;;;;4957555;28;20431;-77
2022/01/03 08:14:34;;;;;;;9.47;2.80;;;9.90;95.00;;;;;;4957691;28;20973;-76
2022/01/03 08:17:00;;;;;;;5.03;2.53;;;9.80;94.80;;;;;;4957970;28;20482;-76
2022/01/03 08:19:26;;;;;;;9.67;3.30;;;9.80;94.80;;;;;;4958353;28;20184;-76
2022/01/03 08:21:51;;;;;;;7.27;2.40;;;9.80;94.90;;;;;;4959503;28;20187;-77
2022/01/03 08:24:18;;;;;;;10.60;2.70;;;9.80;94.60;;;;;;4959558;28;20718;-76
2022/01/03 08:26:44;;;;;;;6.37;2.90;;;9.90;94.50;;;;;;4962031;28;20184;-77
2022/01/03 08:29:11;;;;;;;6.13;2.10;;;10.00;94.40;;;;;;4970528;28;20997;-77
2022/01/03 08:31:37;;;;;;;6.13;2.43;;;10.00;94.20;;;;;;4961442;28;21208;-77
2022/01/03 08:34:03;;;;;;;16.53;3.57;;;10.20;94.10;;;;;;4961247;28;20534;-78
2022/01/03 08:36:29;;;;;;;6.97;3.20;;;10.20;94.00;;;;;;4964645;28;20501;-76
2022/01/03 08:38:55;;;;;;;12.10;3.53;;;10.20;94.00;;;;;;4963999;28;20427;-76
2022/01/03 08:41:21;;;;;;;14.37;4.40;;;10.30;93.50;;;;;;4958653;29;20449;-77
2022/01/03 08:43:47;;;;;;;14.93;4.20;;;10.30;93.60;;;;;;4956564;29;20215;-77
2022/01/03 08:46:13;;;;;;;8.23;3.40;;;10.40;93.80;;;;;;4957867;28;20194;-77
2022/01/03 08:48:39;;;;;;;10.10;3.63;;;10.40;93.70;;;;;;4963468;28;20456;-78
2022/01/03 08:51:05;;;;;;;8.70;3.70;;;10.50;93.80;;;;;;4959855;28;20526;-77
2022/01/03 08:53:31;;;;;;;7.53;3.10;;;10.60;93.70;;;;;;4956992;28;20215;-77
2022/01/03 08:55:57;;;;;;;8.30;3.50;;;10.70;93.60;;;;;;4958641;28;20200;-77
2022/01/03 08:58:24;;;;;;;16.43;4.87;;;10.80;93.50;;;;;;4958145;28;20966;-77
2022/01/03 09:00:50;;;;;;;9.03;3.83;;;10.90;93.30;;;;;;4958305;28;20463;-77
2022/01/03 09:03:16;;;;;;;9.03;3.13;;;11.00;93.00;;;;;;4956793;29;20842;-77
2022/01/03 09:05:42;;;;;;;11.63;3.57;;;10.90;92.30;;;;;;4960351;28;20941;-78
2022/01/03 09:08:09;;;;;;;5.30;2.53;;;11.00;91.50;;;;;;4943980;29;20479;-77
2022/01/03 09:10:35;;;;;;;11.13;3.40;;;10.90;90.90;;;;;;4958178;28;20447;-77
2022/01/03 09:13:01;;;;;;;5.73;2.80;;;10.90;90.50;;;;;;4957628;29;20474;-77
2022/01/03 09:15:27;;;;;;;5.10;2.67;;;11.00;89.90;;;;;;4957334;28;20419;-78
2022/01/03 09:17:53;;;;;;;5.93;2.50;;;11.00;89.50;;;;;;4950028;29;20899;-77
2022/01/03 09:20:21;;;;;;;5.77;3.33;;;11.10;89.00;;;;;;4958755;28;20463;-78
2022/01/03 09:22:49;;;;;;;8.33;2.93;;;11.20;89.00;;;;;;4958171;28;20694;-78
2022/01/03 09:30:36;;;;;;;11.73;2.30;;;11.40;86.90;;;;;;4957637;29;20486;-77
2022/01/03 09:33:02;;;;;;;8.03;3.20;;;11.50;87.00;;;;;;4962882;28;20446;-78
2022/01/03 09:35:28;;;;;;;6.77;2.83;;;11.60;86.80;;;;;;4971325;28;20431;-77
2022/01/03 09:37:54;;;;;;;9.40;3.00;;;11.70;85.60;;;;;;4962853;29;20494;-77
2022/01/03 09:40:20;;;;;;;6.90;2.30;;;11.70;85.30;;;;;;4966560;28;20436;-77
2022/01/03 09:42:50;;;;;;;5.80;2.60;;;11.80;84.40;;;;;;4963191;28;20212;-77
2022/01/03 09:45:16;;;;;;;5.50;3.20;;;11.70;84.00;;;;;;4958852;28;20697;-77
2022/01/03 09:47:44;;;;;;;9.00;2.70;;;11.70;83.40;;;;;;4957715;28;20478;-77
2022/01/03 09:50:12;;;;;;;9.77;3.47;;;11.70;81.20;;;;;;4957030;28;20432;-77
2022/01/03 09:52:41;;;;;;;4.63;2.00;;;11.70;80.80;;;;;;4956637;28;20447;-78
2022/01/03 09:55:07;;;;;;;5.27;2.00;;;11.60;79.60;;;;;;4956621;28;20455;-77
2022/01/03 09:57:33;;;;;;;12.27;2.47;;;11.70;79.90;;;;;;4956169;28;20527;-77
2022/01/03 10:00:00;;;;;;;7.53;2.03;;;11.70;79.00;;;;;;4957699;28;20526;-77
2022/01/03 10:02:27;;;;;;;5.17;1.83;;;11.80;78.60;;;;;;4960177;28;20427;-77
2022/01/03 10:04:52;;;;;;;5.37;2.60;;;11.80;78.90;;;;;;4955058;29;20463;-77
2022/01/03 10:07:19;;;;;;;12.50;2.17;;;11.80;78.40;;;;;;4956353;29;20428;-76
2022/01/03 10:09:46;;;;;;;10.47;2.40;;;11.90;78.90;;;;;;4961320;28;20215;-76
2022/01/03 10:12:14;;;;;;;9.30;2.27;;;12.00;77.40;;;;;;4958574;29;20866;-78
2022/01/03 10:14:41;;;;;;;4.50;2.23;;;12.00;77.10;;;;;;4965322;28;20449;-77
2022/01/03 10:17:07;;;;;;;15.20;2.10;;;12.00;77.40;;;;;;4960658;28;20427;-76
2022/01/03 10:20:00;;;;;;;5.60;1.60;;;12.00;77.00;;;;;;4960463;28;20530;-76
2022/01/03 10:22:29;;;;;;;4.37;2.00;;;12.10;76.50;;;;;;4959702;29;20424;-76
2022/01/03 10:24:56;;;;;;;4.93;2.10;;;12.00;76.10;;;;;;4968354;28;20467;-77
2022/01/03 10:27:23;;;;;;;4.60;2.13;;;12.00;76.50;;;;;;4958493;29;20428;-77
2022/01/03 10:29:57;;;;;;;3.43;1.90;;;12.00;75.90;;;;;;4963862;28;20426;-77
2022/01/03 10:32:30;;;;;;;8.07;2.93;;;12.00;76.40;;;;;;4960895;29;20458;-77
2022/01/03 10:35:12;;;;;;;4.43;1.97;;;12.10;76.40;;;;;;4959180;29;20423;-76
2022/01/03 10:37:37;;;;;;;4.87;1.70;;;12.10;76.20;;;;;;4965853;28;20442;-77
2022/01/03 10:40:19;;;;;;;4.70;1.70;;;12.10;76.40;;;;;;4971894;28;20515;-76
2022/01/03 10:42:46;;;;;;;4.67;2.10;;;12.10;76.50;;;;;;4956730;28;20247;-76
2022/01/03 10:45:12;;;;;;;2.87;2.20;;;12.10;76.70;;;;;;4955419;28;20427;-77
2022/01/03 10:47:41;;;;;;;4.20;1.73;;;12.10;76.70;;;;;;4955052;28;20511;-77
2022/01/03 10:50:19;;;;;;;4.17;2.00;;;12.10;76.40;;;;;;4955896;28;20473;-77
2022/01/03 10:52:47;;;;;;;7.40;2.27;;;12.20;76.40;;;;;;4956527;28;20478;-77
2022/01/03 10:55:20;;;;;;;4.83;2.00;;;12.10;76.50;;;;;;4956023;28;20458;-77
2022/01/03 10:57:52;;;;;;;4.43;2.20;;;12.20;77.00;;;;;;4957539;29;20424;-77
2022/01/03 11:00:46;;;;;;;7.17;1.93;;;12.20;76.50;;;;;;4964128;28;20802;-76
2022/01/03 11:06:21;;;;;;;7.43;2.40;;;12.30;75.80;;;;;;4966220;29;20415;-77
2022/01/03 11:11:37;;;;;;;6.10;2.80;;;12.20;76.10;;;;;;4978368;28;20451;-76
2022/01/03 11:14:03;;;;;;;4.90;1.90;;;12.30;76.40;;;;;;4978950;28;20451;-76
2022/01/03 11:16:34;;;;;;;6.33;2.10;;;12.40;76.10;;;;;;4968209;28;20442;-76
2022/01/03 11:19:00;;;;;;;5.13;2.10;;;12.40;75.70;;;;;;4963660;29;20432;-77
2022/01/03 11:21:26;;;;;;;5.70;2.40;;;12.50;75.80;;;;;;4956705;28;20446;-77
2022/01/03 11:24:11;;;;;;;5.20;2.20;;;12.60;75.10;;;;;;4962127;28;20240;-77
2022/01/03 11:26:47;;;;;;;3.10;2.00;;;12.70;74.80;;;;;;4951725;28;20789;-77
2022/01/03 11:29:13;;;;;;;9.60;2.80;;;12.70;74.30;;;;;;4954717;28;20427;-76
2022/01/03 11:31:40;;;;;;;5.97;2.13;;;12.70;73.70;;;;;;4953170;29;20431;-76
2022/01/03 11:34:07;;;;;;;13.53;2.10;;;12.80;74.00;;;;;;4954395;28;20451;-76
2022/01/03 11:36:35;;;;;;;8.37;3.47;;;12.80;73.50;;;;;;4954385;28;20431;-76
2022/01/03 11:39:09;;;;;;;6.27;2.10;;;12.70;73.30;;;;;;4957788;28;20427;-77
2022/01/03 11:41:40;;;;;;;5.13;1.80;;;12.70;73.60;;;;;;4954674;28;20526;-77
2022/01/03 11:44:08;;;;;;;9.20;2.53;;;12.80;72.90;;;;;;4952685;29;20483;-77
2022/01/03 11:46:34;;;;;;;4.97;2.43;;;12.80;73.00;;;;;;4954020;28;20463;-76
2022/01/03 11:49:00;;;;;;;6.70;2.57;;;12.80;72.70;;;;;;4953169;29;20424;-77
2022/01/03 11:51:30;;;;;;;6.33;2.10;;;12.90;72.40;;;;;;4957363;28;20442;-76
2022/01/03 11:53:57;;;;;;;3.40;1.80;;;12.90;72.30;;;;;;4953409;28;20659;-76
2022/01/03 11:56:25;;;;;;;5.27;1.90;;;12.90;70.80;;;;;;4955260;28;20446;-76
2022/01/03 12:04:14;;;;;;;6.30;1.67;;;12.90;71.00;;;;;;4948225;29;20466;-77
2022/01/03 12:06:41;;;;;;;3.77;2.07;;;12.90;69.20;;;;;;4953608;28;20521;-76
2022/01/03 12:09:14;;;;;;;4.10;1.87;;;12.90;68.80;;;;;;4956347;28;20427;-77
2022/01/03 12:11:54;;;;;;;10.23;3.00;;;12.90;68.50;;;;;;4952644;29;20787;-76
2022/01/03 12:14:40;;;;;;;3.27;1.10;;;12.90;67.70;;;;;;4953182;28;20447;-76
2022/01/03 12:17:08;;;;;;;4.13;1.70;;;12.80;66.90;;;;;;4952480;29;20968;-77
2022/01/03 12:19:38;;;;;;;6.20;1.47;;;12.80;66.70;;;;;;4953627;28;20494;-76
2022/01/03 12:22:22;;;;;;;4.67;1.90;;;12.90;66.30;;;;;;4953443;29;20427;-77
2022/01/03 12:24:52;;;;;;;2.80;1.40;;;12.80;66.60;;;;;;4956600;29;20486;-76
2022/01/03 12:27:23;;;;;;;5.40;1.90;;;12.80;67.20;;;;;;4959913;28;20438;-76
2022/01/03 12:29:55;;;;;;;5.20;1.27;;;12.80;67.60;;;;;;4955362;29;20419;-77
2022/01/03 12:32:35;;;;;;;4.90;1.87;;;12.80;68.00;;;;;;4954283;28;20910;-76
2022/01/03 12:35:07;;;;;;;5.73;1.67;;;12.70;68.20;;;;;;4953989;29;20518;-76
2022/01/03 12:37:48;;;;;;;5.03;1.90;;;12.70;68.60;;;;;;4961862;28;20458;-76
2022/01/03 12:40:16;;;;;;;3.00;1.40;;;12.70;68.80;;;;;;4966832;28;20420;-78
2022/01/03 12:42:53;;;;;;;3.80;1.70;;;12.70;68.60;;;;;;4962636;28;21169;-77
2022/01/03 12:45:37;;;;;;;3.60;1.70;;;12.60;68.80;;;;;;4955706;29;20964;-76
2022/01/03 12:48:08;;;;;;;5.03;1.80;;;12.60;69.20;;;;;;4957022;29;20938;-78
2022/01/03 12:50:40;;;;;;;7.93;1.60;;;12.70;69.20;;;;;;4957107;29;20442;-77
2022/01/03 12:53:26;;;;;;;5.27;1.80;;;12.70;69.40;;;;;;4962325;28;20517;-77
2022/01/03 12:56:01;;;;;;;4.03;1.80;;;12.80;69.70;;;;;;4946854;28;20505;-77
2022/01/03 12:58:26;;;;;;;4.57;1.90;;;12.80;69.40;;;;;;4955901;29;20922;-77
2022/01/03 13:00:59;;;;;;;2.70;1.50;;;12.80;69.70;;;;;;4957328;29;20562;-76
2022/01/03 13:03:27;;;;;;;8.33;2.00;;;12.70;69.90;;;;;;4956444;29;20764;-77
2022/01/03 13:06:31;;;;;;;3.00;1.70;;;12.70;69.70;;;;;;4959945;28;20428;-76
2022/01/03 13:08:57;;;;;;;6.60;2.40;;;12.70;70.20;;;;;;4963882;28;20417;-76
2022/01/03 13:11:24;;;;;;;6.73;1.90;;;12.70;70.50;;;;;;4959749;29;20487;-76
2022/01/03 13:14:01;;;;;;;6.20;1.67;;;12.70;70.20;;;;;;4959573;29;20238;-77
2022/01/03 13:16:28;;;;;;;6.97;2.10;;;12.70;69.90;;;;;;4958887;28;20427;-77
2022/01/03 13:18:56;;;;;;;4.13;1.87;;;12.70;69.80;;;;;;4958170;28;20558;-77